sensor_id;sensor_type;location;lat;lon;timestamp;pressure;altitude;pressure_sealevel;temperature;humidity
54314;BME280;50746;52.490;13.320;2023-04-26T00:00:59;100870.0;;;5.0;100.0
54314;BME280;50746;52.490;13.320;2023-04-26T00:01:54;100870.0;;;4.9;100.0
54314;BME280;50746;52.490;13.320;2023-04-26T00:02:54;100870.0;;;5.0;100.0
54314;BME280;50746;52.490;13.320;2023-04-26T00:05:54;100870.0;;;5.1;100.0
54314;BME280;50746;52.490;13.320;2023-04-26T00:06:54;100870.0;;;5.2;100.0
54314;BME280;50746;52.490;13.320;2023-04-26T00:13:56;100870.0;;;5.1;100.0
54314;BME280;50746;52.490;13.320;2023-04-26T00:17:54;100870.0;;;5.0;100.0
54314;BME280;50746;52.490;13.320;2023-04-26T00:19:54;100870.0;;;4.9;100.0
54314;BME280;50746;52.490;13.320;2023-04-26T00:20:54;100870.0;;;5.0;100.0
54314;BME280;50746;52.490;13.320;2023-04-26T00:21:54;100870.0;;;5.1;100.0
54314;BME280;50746;52.490;13.320;2023-04-26T00:28:54;100870.0;;;5.0;100.0
54314;BME280;50746;52.490;13.320;2023-04-26T00:30:54;100870.0;;;4.9;100.0
54314;BME280;50746;52.490;13.320;2023-04-26T00:31:54;100870.0;;;5.0;100.0
54314;BME280;50746;52.490;13.320;2023-04-26T00:32:54;100870.0;;;4.9;100.0
54314;BME280;50746;52.490;13.320;2023-04-26T00:33:54;100870.0;;;4.8;100.0
54314;BME280;50746;52.490;13.320;2023-04-26T00:34:54;100870.0;;;4.9;100.0
54314;BME280;50746;52.490;13.320;2023-04-26T00:37:54;100870.0;;;5.0;100.0
54314;BME280;50746;52.490;13.320;2023-04-26T00:40:54;100870.0;;;4.9;100.0
54314;BME280;50746;52.490;13.320;2023-04-26T00:42:56;100870.0;;;5.0;100.0
54314;BME280;50746;52.490;13.320;2023-04-26T00:43:54;100870.0;;;4.9;100.0
54314;BME280;50746;52.490;13.320;2023-04-26T00:45:54;100870.0;;;4.8;100.0
54314;BME280;50746;52.490;13.320;2023-04-26T00:47:55;100870.0;;;4.9;100.0
54314;BME280;50746;52.490;13.320;2023-04-26T00:48:54;100870.0;;;4.8;100.0
54314;BME280;50746;52.490;13.320;2023-04-26T00:49:55;100870.0;;;4.6;100.0
54314;BME280;50746;52.490;13.320;2023-04-26T00:53:55;100870.0;;;4.5;100.0
54314;BME280;50746;52.490;13.320;2023-04-26T00:54:55;100870.0;;;4.6;100.0
54314;BME280;50746;52.490;13.320;2023-04-26T00:56:55;100870.0;;;4.5;100.0
54314;BME280;50746;52.490;13.320;2023-04-26T00:57:54;100880.0;;;4.4;100.0
54314;BME280;50746;52.490;13.320;2023-04-26T00:58:54;100870.0;;;4.5;100.0
54314;BME280;50746;52.490;13.320;2023-04-26T00:59:54;100870.0;;;4.6;100.0
54314;BME280;50746;52.490;13.320;2023-04-26T01:00:54;100870.0;;;4.5;100.0
54314;BME280;50746;52.490;13.320;2023-04-26T01:01:54;100870.0;;;4.6;100.0
54314;BME280;50746;52.490;13.320;2023-04-26T01:02:54;100870.0;;;4.7;100.0
54314;BME280;50746;52.490;13.320;2023-04-26T01:04:54;100880.0;;;4.6;100.0
54314;BME280;50746;52.490;13.320;2023-04-26T01:07:54;100880.0;;;4.7;100.0
54314;BME280;50746;52.490;13.320;2023-04-26T01:08:56;100880.0;;;4.6;100.0
54314;BME280;50746;52.490;13.320;2023-04-26T01:11:54;100880.0;;;4.7;100.0
54314;BME280;50746;52.490;13.320;2023-04-26T01:12:54;100880.0;;;4.8;100.0
54314;BME280;50746;52.490;13.320;2023-04-26T01:14:55;100880.0;;;4.7;100.0
54314;BME280;50746;52.490;13.320;2023-04-26T01:15:55;100880.0;;;4.6;100.0
54314;BME280;50746;52.490;13.320;2023-04-26T01:19:54;100880.0;;;4.5;100.0
54314;BME280;50746;52.490;13.320;2023-04-26T01:21:54;100880.0;;;4.4;100.0
54314;BME280;50746;52.490;13.320;2023-04-26T01:22:54;100890.0;;;4.3;100.0
54314;BME280;50746;52.490;13.320;2023-04-26T01:24:55;100890.0;;;4.4;100.0
54314;BME280;50746;52.490;13.320;2023-04-26T01:27:54;100880.0;;;4.3;100.0
54314;BME280;50746;52.490;13.320;2023-04-26T01:29:54;100890.0;;;4.2;100.0
54314;BME280;50746;52.490;13.320;2023-04-26T01:32:54;100900.0;;;4.1;100.0
54314;BME280;50746;52.490;13.320;2023-04-26T01:33:54;100900.0;;;4.2;100.0
54314;BME280;50746;52.490;13.320;2023-04-26T01:34:54;100900.0;;;4.3;100.0
54314;BME280;50746;52.490;13.320;2023-04-26T01:38:54;100900.0;;;4.4;100.0
54314;BME280;50746;52.490;13.320;2023-04-26T01:42:54;100900.0;;;4.3;100.0
54314;BME280;50746;52.490;13.320;2023-04-26T01:43:55;100910.0;;;4.4;100.0
54314;BME280;50746;52.490;13.320;2023-04-26T01:52:54;100900.0;;;4.5;100.0
54314;BME280;50746;52.490;13.320;2023-04-26T01:53:54;100910.0;;;4.3;100.0
54314;BME280;50746;52.490;13.320;2023-04-26T01:55:54;100910.0;;;4.2;100.0
54314;BME280;50746;52.490;13.320;2023-04-26T01:58:54;100910.0;;;4.3;100.0
54314;BME280;50746;52.490;13.320;2023-04-26T01:59:54;100910.0;;;4.4;100.0
54314;BME280;50746;52.490;13.320;2023-04-26T02:00:55;100900.0;;;4.2;100.0
54314;BME280;50746;52.490;13.320;2023-04-26T02:03:55;100900.0;;;4.3;100.0
54314;BME280;50746;52.490;13.320;2023-04-26T02:05:54;100910.0;;;4.2;100.0
54314;BME280;50746;52.490;13.320;2023-04-26T02:06:54;100900.0;;;4.1;100.0
54314;BME280;50746;52.490;13.320;2023-04-26T02:07:54;100910.0;;;4.2;100.0
54314;BME280;50746;52.490;13.320;2023-04-26T02:08:55;100910.0;;;4.1;100.0
54314;BME280;50746;52.490;13.320;2023-04-26T02:09:54;100910.0;;;4.0;100.0
54314;BME280;50746;52.490;13.320;2023-04-26T02:10:54;100910.0;;;4.1;100.0
54314;BME280;50746;52.490;13.320;2023-04-26T02:11:54;100910.0;;;4.0;100.0
54314;BME280;50746;52.490;13.320;2023-04-26T02:12:54;100910.0;;;4.2;100.0
54314;BME280;50746;52.490;13.320;2023-04-26T02:13:54;100910.0;;;4.0;100.0
54314;BME280;50746;52.490;13.320;2023-04-26T02:15:54;100910.0;;;3.9;100.0
54314;BME280;50746;52.490;13.320;2023-04-26T02:17:54;100910.0;;;3.8;100.0
54314;BME280;50746;52.490;13.320;2023-04-26T02:18:54;100910.0;;;3.9;100.0
54314;BME280;50746;52.490;13.320;2023-04-26T02:19:54;100910.0;;;4.1;100.0
54314;BME280;50746;52.490;13.320;2023-04-26T02:20:54;100910.0;;;4.0;100.0
54314;BME280;50746;52.490;13.320;2023-04-26T02:22:54;100910.0;;;3.9;100.0
54314;BME280;50746;52.490;13.320;2023-04-26T02:23:54;100910.0;;;3.8;100.0
54314;BME280;50746;52.490;13.320;2023-04-26T02:25:54;100910.0;;;4.0;100.0
54314;BME280;50746;52.490;13.320;2023-04-26T02:26:54;100910.0;;;4.1;100.0
54314;BME280;50746;52.490;13.320;2023-04-26T02:27:54;100910.0;;;4.0;100.0
54314;BME280;50746;52.490;13.320;2023-04-26T02:29:54;100910.0;;;3.8;100.0
54314;BME280;50746;52.490;13.320;2023-04-26T02:33:54;100910.0;;;4.0;100.0
54314;BME280;50746;52.490;13.320;2023-04-26T02:34:54;100910.0;;;4.1;100.0
54314;BME280;50746;52.490;13.320;2023-04-26T02:35:54;100910.0;;;4.0;100.0
54314;BME280;50746;52.490;13.320;2023-04-26T02:37:54;100910.0;;;3.9;100.0
54314;BME280;50746;52.490;13.320;2023-04-26T02:39:54;100900.0;;;4.0;100.0
54314;BME280;50746;52.490;13.320;2023-04-26T02:42:55;100900.0;;;3.9;100.0
54314;BME280;50746;52.490;13.320;2023-04-26T02:44:55;100900.0;;;3.8;100.0
54314;BME280;50746;52.490;13.320;2023-04-26T02:46:54;100910.0;;;4.0;100.0
54314;BME280;50746;52.490;13.320;2023-04-26T02:47:54;100910.0;;;3.9;100.0
54314;BME280;50746;52.490;13.320;2023-04-26T02:49:55;100910.0;;;3.8;100.0
54314;BME280;50746;52.490;13.320;2023-04-26T02:50:54;100900.0;;;3.7;100.0
54314;BME280;50746;52.490;13.320;2023-04-26T02:51:54;100910.0;;;3.8;100.0
54314;BME280;50746;52.490;13.320;2023-04-26T02:53:54;100900.0;;;3.7;100.0
54314;BME280;50746;52.490;13.320;2023-04-26T02:55:54;100900.0;;;3.9;100.0
54314;BME280;50746;52.490;13.320;2023-04-26T02:58:54;100900.0;;;3.8;100.0
54314;BME280;50746;52.490;13.320;2023-04-26T03:00:55;100900.0;;;3.9;100.0
54314;BME280;50746;52.490;13.320;2023-04-26T03:01:54;100910.0;;;3.8;100.0
54314;BME280;50746;52.490;13.320;2023-04-26T03:05:54;100910.0;;;3.9;100.0
54314;BME280;50746;52.490;13.320;2023-04-26T03:09:54;100910.0;;;3.8;100.0
54314;BME280;50746;52.490;13.320;2023-04-26T03:10:54;100910.0;;;3.9;100.0
54314;BME280;50746;52.490;13.320;2023-04-26T03:11:54;100910.0;;;3.8;100.0
54314;BME280;50746;52.490;13.320;2023-04-26T03:13:54;100910.0;;;3.6;100.0
54314;BME280;50746;52.490;13.320;2023-04-26T03:15:54;100910.0;;;3.5;100.0
54314;BME280;50746;52.490;13.320;2023-04-26T03:19:54;100920.0;;;3.7;100.0
54314;BME280;50746;52.490;13.320;2023-04-26T03:20:54;100910.0;;;3.6;100.0
54314;BME280;50746;52.490;13.320;2023-04-26T03:21:54;100910.0;;;3.7;100.0
54314;BME280;50746;52.490;13.320;2023-04-26T03:22:54;100910.0;;;3.5;100.0
54314;BME280;50746;52.490;13.320;2023-04-26T03:24:54;100910.0;;;3.3;100.0
54314;BME280;50746;52.490;13.320;2023-04-26T03:25:54;100910.0;;;3.4;100.0
54314;BME280;50746;52.490;13.320;2023-04-26T03:30:54;100910.0;;;3.3;100.0
54314;BME280;50746;52.490;13.320;2023-04-26T03:32:54;100920.0;;;3.4;100.0
54314;BME280;50746;52.490;13.320;2023-04-26T03:36:54;100920.0;;;3.5;100.0
54314;BME280;50746;52.490;13.320;2023-04-26T03:38:54;100920.0;;;3.4;100.0
54314;BME280;50746;52.490;13.320;2023-04-26T03:39:54;100920.0;;;3.6;100.0
54314;BME280;50746;52.490;13.320;2023-04-26T03:40:54;100920.0;;;3.8;100.0
54314;BME280;50746;52.490;13.320;2023-04-26T03:42:54;100920.0;;;3.7;100.0
54314;BME280;50746;52.490;13.320;2023-04-26T03:43:54;100920.0;;;3.5;100.0
54314;BME280;50746;52.490;13.320;2023-04-26T03:44:54;100920.0;;;3.4;100.0
54314;BME280;50746;52.490;13.320;2023-04-26T03:47:54;100930.0;;;3.6;100.0
54314;BME280;50746;52.490;13.320;2023-04-26T03:49:54;100920.0;;;3.7;100.0
54314;BME280;50746;52.490;13.320;2023-04-26T03:52:54;100930.0;;;3.6;100.0
54314;BME280;50746;52.490;13.320;2023-04-26T03:56:54;100920.0;;;3.5;100.0
54314;BME280;50746;52.490;13.320;2023-04-26T03:57:54;100930.0;;;3.6;100.0
54314;BME280;50746;52.490;13.320;2023-04-26T03:59:55;100930.0;;;3.4;100.0
54314;BME280;50746;52.490;13.320;2023-04-26T04:00:55;100920.0;;;3.5;100.0
54314;BME280;50746;52.490;13.320;2023-04-26T04:01:54;100920.0;;;3.6;100.0
54314;BME280;50746;52.490;13.320;2023-04-26T04:03:54;100930.0;;;3.5;100.0
54314;BME280;50746;52.490;13.320;2023-04-26T04:05:54;100930.0;;;3.6;100.0
54314;BME280;50746;52.490;13.320;2023-04-26T04:07:54;100930.0;;;3.5;100.0
54314;BME280;50746;52.490;13.320;2023-04-26T04:08:54;100930.0;;;3.6;100.0
54314;BME280;50746;52.490;13.320;2023-04-26T04:12:55;100930.0;;;3.4;100.0
54314;BME280;50746;52.490;13.320;2023-04-26T04:15:54;100930.0;;;3.3;100.0
54314;BME280;50746;52.490;13.320;2023-04-26T04:16:54;100930.0;;;3.4;100.0
54314;BME280;50746;52.490;13.320;2023-04-26T04:17:54;100940.0;;;3.5;100.0
54314;BME280;50746;52.490;13.320;2023-04-26T04:20:54;100930.0;;;3.6;100.0
54314;BME280;50746;52.490;13.320;2023-04-26T04:21:54;100930.0;;;3.5;100.0
54314;BME280;50746;52.490;13.320;2023-04-26T04:22:54;100930.0;;;3.6;100.0
54314;BME280;50746;52.490;13.320;2023-04-26T04:28:54;100940.0;;;3.4;100.0
54314;BME280;50746;52.490;13.320;2023-04-26T04:29:54;100940.0;;;3.3;100.0
54314;BME280;50746;52.490;13.320;2023-04-26T04:30:54;100940.0;;;3.4;100.0
54314;BME280;50746;52.490;13.320;2023-04-26T04:35:55;100950.0;;;3.5;100.0
54314;BME280;50746;52.490;13.320;2023-04-26T04:37:54;100940.0;;;3.6;100.0
54314;BME280;50746;52.490;13.320;2023-04-26T04:38:54;100950.0;;;3.7;100.0
54314;BME280;50746;52.490;13.320;2023-04-26T04:39:54;100950.0;;;3.8;100.0
54314;BME280;50746;52.490;13.320;2023-04-26T04:41:54;100950.0;;;3.7;100.0
54314;BME280;50746;52.490;13.320;2023-04-26T04:42:54;100950.0;;;3.6;100.0
54314;BME280;50746;52.490;13.320;2023-04-26T04:43:54;100960.0;;;3.5;100.0
54314;BME280;50746;52.490;13.320;2023-04-26T04:45:54;100960.0;;;3.6;100.0
54314;BME280;50746;52.490;13.320;2023-04-26T04:51:54;100960.0;;;3.7;100.0
54314;BME280;50746;52.490;13.320;2023-04-26T04:53:56;100960.0;;;3.8;100.0
54314;BME280;50746;52.490;13.320;2023-04-26T04:57:54;100960.0;;;4.0;100.0
54314;BME280;50746;52.490;13.320;2023-04-26T04:58:54;100970.0;;;4.1;100.0
54314;BME280;50746;52.490;13.320;2023-04-26T04:59:54;100970.0;;;3.8;100.0
54314;BME280;50746;52.490;13.320;2023-04-26T05:00:54;100960.0;;;4.0;100.0
54314;BME280;50746;52.490;13.320;2023-04-26T05:02:54;100960.0;;;4.1;100.0
54314;BME280;50746;52.490;13.320;2023-04-26T05:08:55;100970.0;;;4.2;100.0
54314;BME280;50746;52.490;13.320;2023-04-26T05:10:54;100980.0;;;4.1;100.0
54314;BME280;50746;52.490;13.320;2023-04-26T05:13:54;100970.0;;;4.2;100.0
54314;BME280;50746;52.490;13.320;2023-04-26T05:14:54;100970.0;;;4.1;100.0
54314;BME280;50746;52.490;13.320;2023-04-26T05:17:54;100970.0;;;4.2;100.0
54314;BME280;50746;52.490;13.320;2023-04-26T05:19:54;100980.0;;;4.1;100.0
54314;BME280;50746;52.490;13.320;2023-04-26T05:21:55;100980.0;;;4.2;100.0
54314;BME280;50746;52.490;13.320;2023-04-26T05:22:54;100980.0;;;4.3;100.0
54314;BME280;50746;52.490;13.320;2023-04-26T05:24:55;100980.0;;;4.4;100.0
54314;BME280;50746;52.490;13.320;2023-04-26T05:26:56;100990.0;;;4.3;100.0
54314;BME280;50746;52.490;13.320;2023-04-26T05:27:54;100990.0;;;4.4;100.0
54314;BME280;50746;52.490;13.320;2023-04-26T05:30:54;101000.0;;;4.5;100.0
54314;BME280;50746;52.490;13.320;2023-04-26T05:33:54;100990.0;;;4.6;100.0
54314;BME280;50746;52.490;13.320;2023-04-26T05:35:54;100990.0;;;4.4;100.0
54314;BME280;50746;52.490;13.320;2023-04-26T05:36:54;101000.0;;;4.5;100.0
54314;BME280;50746;52.490;13.320;2023-04-26T05:37:54;101000.0;;;4.6;100.0
54314;BME280;50746;52.490;13.320;2023-04-26T05:42:54;101000.0;;;4.7;100.0
54314;BME280;50746;52.490;13.320;2023-04-26T05:43:54;101000.0;;;4.6;100.0
54314;BME280;50746;52.490;13.320;2023-04-26T05:46:54;101000.0;;;4.5;100.0
54314;BME280;50746;52.490;13.320;2023-04-26T05:48:54;101020.0;;;4.6;100.0
54314;BME280;50746;52.490;13.320;2023-04-26T05:54:54;101010.0;;;4.7;100.0
54314;BME280;50746;52.490;13.320;2023-04-26T05:56:54;101010.0;;;4.8;100.0
54314;BME280;50746;52.490;13.320;2023-04-26T05:57:54;101000.0;;;4.7;100.0
54314;BME280;50746;52.490;13.320;2023-04-26T06:00:54;101010.0;;;4.8;100.0
54314;BME280;50746;52.490;13.320;2023-04-26T06:05:54;101010.0;;;4.9;100.0
54314;BME280;50746;52.490;13.320;2023-04-26T06:06:54;101020.0;;;5.0;100.0
54314;BME280;50746;52.490;13.320;2023-04-26T06:14:54;101020.0;;;5.1;100.0
54314;BME280;50746;52.490;13.320;2023-04-26T06:15:54;101020.0;;;5.2;100.0
54314;BME280;50746;52.490;13.320;2023-04-26T06:16:55;101020.0;;;5.1;100.0
54314;BME280;50746;52.490;13.320;2023-04-26T06:19:54;101020.0;;;5.2;100.0
54314;BME280;50746;52.490;13.320;2023-04-26T06:21:54;101010.0;;;5.3;100.0
54314;BME280;50746;52.490;13.320;2023-04-26T06:26:54;101020.0;;;5.2;100.0
54314;BME280;50746;52.490;13.320;2023-04-26T06:28:54;101020.0;;;5.3;100.0
54314;BME280;50746;52.490;13.320;2023-04-26T06:30:54;101020.0;;;5.4;100.0
54314;BME280;50746;52.490;13.320;2023-04-26T06:31:54;101020.0;;;5.5;100.0
54314;BME280;50746;52.490;13.320;2023-04-26T06:33:54;101020.0;;;5.6;100.0
54314;BME280;50746;52.490;13.320;2023-04-26T06:35:54;101020.0;;;5.5;100.0
54314;BME280;50746;52.490;13.320;2023-04-26T06:37:54;101020.0;;;5.6;100.0
54314;BME280;50746;52.490;13.320;2023-04-26T06:41:54;101020.0;;;5.7;100.0
54314;BME280;50746;52.490;13.320;2023-04-26T06:42:54;101020.0;;;5.8;100.0
54314;BME280;50746;52.490;13.320;2023-04-26T06:43:54;101020.0;;;5.7;100.0
54314;BME280;50746;52.490;13.320;2023-04-26T06:46:54;101020.0;;;5.8;100.0
54314;BME280;50746;52.490;13.320;2023-04-26T06:48:54;101030.0;;;5.9;100.0
54314;BME280;50746;52.490;13.320;2023-04-26T06:51:54;101020.0;;;6.0;100.0
54314;BME280;50746;52.490;13.320;2023-04-26T06:53:54;101030.0;;;6.2;100.0
54314;BME280;50746;52.490;13.320;2023-04-26T06:55:54;101030.0;;;6.4;100.0
54314;BME280;50746;52.490;13.320;2023-04-26T06:57:55;101020.0;;;6.5;100.0
54314;BME280;50746;52.490;13.320;2023-04-26T06:58:59;101030.0;;;6.6;100.0
54314;BME280;50746;52.490;13.320;2023-04-26T07:00:54;101020.0;;;6.7;100.0
54314;BME280;50746;52.490;13.320;2023-04-26T07:05:54;101020.0;;;6.9;100.0
54314;BME280;50746;52.490;13.320;2023-04-26T07:06:54;101020.0;;;7.0;100.0
54314;BME280;50746;52.490;13.320;2023-04-26T07:08:54;101030.0;;;6.8;100.0
54314;BME280;50746;52.490;13.320;2023-04-26T07:11:54;101020.0;;;6.9;100.0
54314;BME280;50746;52.490;13.320;2023-04-26T07:12:54;101030.0;;;6.8;100.0
54314;BME280;50746;52.490;13.320;2023-04-26T07:13:54;101030.0;;;6.9;100.0
54314;BME280;50746;52.490;13.320;2023-04-26T07:17:54;101020.0;;;6.8;100.0
54314;BME280;50746;52.490;13.320;2023-04-26T07:18:54;101030.0;;;7.0;100.0
54314;BME280;50746;52.490;13.320;2023-04-26T07:19:54;101040.0;;;6.8;100.0
54314;BME280;50746;52.490;13.320;2023-04-26T07:27:54;101030.0;;;6.9;100.0
54314;BME280;50746;52.490;13.320;2023-04-26T07:29:54;101030.0;;;6.8;100.0
54314;BME280;50746;52.490;13.320;2023-04-26T07:30:54;101050.0;;;6.7;100.0
54314;BME280;50746;52.490;13.320;2023-04-26T07:33:54;101040.0;;;6.8;100.0
54314;BME280;50746;52.490;13.320;2023-04-26T07:35:55;101040.0;;;6.9;100.0
54314;BME280;50746;52.490;13.320;2023-04-26T07:37:54;101040.0;;;7.0;100.0
54314;BME280;50746;52.490;13.320;2023-04-26T07:38:54;101060.0;;;7.1;100.0
54314;BME280;50746;52.490;13.320;2023-04-26T07:42:54;101050.0;;;7.2;100.0
54314;BME280;50746;52.490;13.320;2023-04-26T07:44:54;101040.0;;;7.1;100.0
54314;BME280;50746;52.490;13.320;2023-04-26T07:46:54;101040.0;;;7.2;100.0
54314;BME280;50746;52.490;13.320;2023-04-26T07:47:54;101030.0;;;7.3;100.0
54314;BME280;50746;52.490;13.320;2023-04-26T07:48:54;101030.0;;;7.4;100.0
54314;BME280;50746;52.490;13.320;2023-04-26T07:50:54;101030.0;;;7.6;100.0
54314;BME280;50746;52.490;13.320;2023-04-26T07:52:54;101040.0;;;7.5;100.0
54314;BME280;50746;52.490;13.320;2023-04-26T07:54:54;101040.0;;;7.7;100.0
54314;BME280;50746;52.490;13.320;2023-04-26T07:58:54;101040.0;;;7.6;100.0
54314;BME280;50746;52.490;13.320;2023-04-26T07:59:54;101050.0;;;7.8;100.0
54314;BME280;50746;52.490;13.320;2023-04-26T08:01:54;101040.0;;;7.9;100.0
54314;BME280;50746;52.490;13.320;2023-04-26T08:02:54;101040.0;;;8.0;100.0
54314;BME280;50746;52.490;13.320;2023-04-26T08:04:54;101040.0;;;8.1;100.0
54314;BME280;50746;52.490;13.320;2023-04-26T08:05:55;101050.0;;;8.0;100.0
54314;BME280;50746;52.490;13.320;2023-04-26T08:06:54;101050.0;;;8.2;100.0
54314;BME280;50746;52.490;13.320;2023-04-26T08:07:54;101040.0;;;8.0;100.0
54314;BME280;50746;52.490;13.320;2023-04-26T08:08:54;101040.0;;;8.1;100.0
54314;BME280;50746;52.490;13.320;2023-04-26T08:10:54;101040.0;;;8.0;100.0
54314;BME280;50746;52.490;13.320;2023-04-26T08:13:54;101050.0;;;7.9;100.0
54314;BME280;50746;52.490;13.320;2023-04-26T08:16:54;101050.0;;;7.8;100.0
54314;BME280;50746;52.490;13.320;2023-04-26T08:18:54;101060.0;;;8.0;100.0
54314;BME280;50746;52.490;13.320;2023-04-26T08:20:54;101050.0;;;8.1;100.0
54314;BME280;50746;52.490;13.320;2023-04-26T08:22:54;101050.0;;;8.0;100.0
54314;BME280;50746;52.490;13.320;2023-04-26T08:23:54;101060.0;;;8.2;100.0
54314;BME280;50746;52.490;13.320;2023-04-26T08:24:54;101050.0;;;8.3;100.0
54314;BME280;50746;52.490;13.320;2023-04-26T08:27:54;101060.0;;;8.0;100.0
54314;BME280;50746;52.490;13.320;2023-04-26T08:28:54;101060.0;;;8.1;100.0
54314;BME280;50746;52.490;13.320;2023-04-26T08:29:54;101050.0;;;8.0;100.0
54314;BME280;50746;52.490;13.320;2023-04-26T08:30:54;101060.0;;;7.9;100.0
54314;BME280;50746;52.490;13.320;2023-04-26T08:32:54;101060.0;;;8.0;100.0
54314;BME280;50746;52.490;13.320;2023-04-26T08:33:54;101060.0;;;7.8;100.0
54314;BME280;50746;52.490;13.320;2023-04-26T08:34:54;101060.0;;;7.6;100.0
54314;BME280;50746;52.490;13.320;2023-04-26T08:35:55;101070.0;;;7.7;100.0
54314;BME280;50746;52.490;13.320;2023-04-26T08:37:54;101070.0;;;7.5;100.0
54314;BME280;50746;52.490;13.320;2023-04-26T08:38:54;101060.0;;;7.4;100.0
54314;BME280;50746;52.490;13.320;2023-04-26T08:40:55;101060.0;;;7.3;100.0
54314;BME280;50746;52.490;13.320;2023-04-26T08:41:58;101070.0;;;7.4;100.0
54314;BME280;50746;52.490;13.320;2023-04-26T08:45:56;101070.0;;;7.5;100.0
54314;BME280;50746;52.490;13.320;2023-04-26T08:49:03;101060.0;;;7.7;100.0
54314;BME280;50746;52.490;13.320;2023-04-26T08:50:55;101060.0;;;7.9;100.0
54314;BME280;50746;52.490;13.320;2023-04-26T08:51:55;101060.0;;;8.1;100.0
54314;BME280;50746;52.490;13.320;2023-04-26T08:52:55;101060.0;;;8.2;100.0
54314;BME280;50746;52.490;13.320;2023-04-26T08:53:56;101060.0;;;8.1;100.0
54314;BME280;50746;52.490;13.320;2023-04-26T08:54:56;101050.0;;;8.3;100.0
54314;BME280;50746;52.490;13.320;2023-04-26T08:55:54;101050.0;;;8.6;100.0
54314;BME280;50746;52.490;13.320;2023-04-26T08:56:57;101050.0;;;8.8;100.0
54314;BME280;50746;52.490;13.320;2023-04-26T08:57:54;101040.0;;;8.9;100.0
54314;BME280;50746;52.490;13.320;2023-04-26T08:59:55;101060.0;;;9.0;100.0
54314;BME280;50746;52.490;13.320;2023-04-26T09:00:54;101050.0;;;8.9;100.0
54314;BME280;50746;52.490;13.320;2023-04-26T09:02:54;101060.0;;;8.5;100.0
54314;BME280;50746;52.490;13.320;2023-04-26T09:03:55;101060.0;;;8.4;100.0
54314;BME280;50746;52.490;13.320;2023-04-26T09:05:54;101060.0;;;8.5;100.0
54314;BME280;50746;52.490;13.320;2023-04-26T09:06:59;101060.0;;;8.3;100.0
54314;BME280;50746;52.490;13.320;2023-04-26T09:08:55;101070.0;;;8.4;100.0
54314;BME280;50746;52.490;13.320;2023-04-26T09:09:56;101070.0;;;8.3;100.0
54314;BME280;50746;52.490;13.320;2023-04-26T09:11:56;101060.0;;;8.4;100.0
54314;BME280;50746;52.490;13.320;2023-04-26T09:15:54;101060.0;;;8.3;100.0
54314;BME280;50746;52.490;13.320;2023-04-26T09:17:54;101060.0;;;8.4;100.0
54314;BME280;50746;52.490;13.320;2023-04-26T09:19:55;101060.0;;;8.5;100.0
54314;BME280;50746;52.490;13.320;2023-04-26T09:23:56;101060.0;;;8.6;100.0
54314;BME280;50746;52.490;13.320;2023-04-26T09:25:54;101060.0;;;8.5;100.0
54314;BME280;50746;52.490;13.320;2023-04-26T09:27:00;101060.0;;;8.7;100.0
54314;BME280;50746;52.490;13.320;2023-04-26T09:27:54;101070.0;;;8.8;100.0
54314;BME280;50746;52.490;13.320;2023-04-26T09:29:57;101060.0;;;8.6;100.0
54314;BME280;50746;52.490;13.320;2023-04-26T09:30:54;101060.0;;;8.4;100.0
54314;BME280;50746;52.490;13.320;2023-04-26T09:32:56;101060.0;;;8.3;100.0
54314;BME280;50746;52.490;13.320;2023-04-26T09:34:54;101060.0;;;8.4;100.0
54314;BME280;50746;52.490;13.320;2023-04-26T09:37:56;101060.0;;;8.5;100.0
54314;BME280;50746;52.490;13.320;2023-04-26T09:38:54;101070.0;;;8.3;100.0
54314;BME280;50746;52.490;13.320;2023-04-26T09:39:54;101060.0;;;8.1;100.0
54314;BME280;50746;52.490;13.320;2023-04-26T09:45:56;101060.0;;;8.3;100.0
54314;BME280;50746;52.490;13.320;2023-04-26T09:46:57;101060.0;;;8.5;100.0
54314;BME280;50746;52.490;13.320;2023-04-26T09:48:00;101060.0;;;8.4;100.0
54314;BME280;50746;52.490;13.320;2023-04-26T09:49:01;101050.0;;;8.5;100.0
54314;BME280;50746;52.490;13.320;2023-04-26T09:49:54;101050.0;;;8.6;100.0
54314;BME280;50746;52.490;13.320;2023-04-26T09:50:55;101050.0;;;8.9;100.0
54314;BME280;50746;52.490;13.320;2023-04-26T09:52:03;101040.0;;;8.7;100.0
54314;BME280;50746;52.490;13.320;2023-04-26T09:53:54;101050.0;;;8.9;100.0
54314;BME280;50746;52.490;13.320;2023-04-26T09:54:54;101050.0;;;9.1;98.1
54314;BME280;50746;52.490;13.320;2023-04-26T09:58:57;101050.0;;;9.3;90.5
54314;BME280;50746;52.490;13.320;2023-04-26T09:59:54;101050.0;;;9.2;88.1
54314;BME280;50746;52.490;13.320;2023-04-26T10:00:54;101060.0;;;9.3;87.7
54314;BME280;50746;52.490;13.320;2023-04-26T10:01:54;101060.0;;;8.8;91.6
54314;BME280;50746;52.490;13.320;2023-04-26T10:02:55;101050.0;;;8.6;96.1
54314;BME280;50746;52.490;13.320;2023-04-26T10:03:55;101050.0;;;8.9;97.6
54314;BME280;50746;52.490;13.320;2023-04-26T10:04:55;101060.0;;;9.0;97.7
54314;BME280;50746;52.490;13.320;2023-04-26T10:05:55;101060.0;;;8.9;97.4
54314;BME280;50746;52.490;13.320;2023-04-26T10:06:54;101050.0;;;8.8;97.4
54314;BME280;50746;52.490;13.320;2023-04-26T10:08:55;101070.0;;;9.0;92.5
54314;BME280;50746;52.490;13.320;2023-04-26T10:09:56;101070.0;;;8.8;86.5
54314;BME280;50746;52.490;13.320;2023-04-26T10:10:54;101050.0;;;8.7;82.0
54314;BME280;50746;52.490;13.320;2023-04-26T10:11:54;101050.0;;;9.0;82.9
54314;BME280;50746;52.490;13.320;2023-04-26T10:12:54;101050.0;;;9.2;82.6
54314;BME280;50746;52.490;13.320;2023-04-26T10:13:54;101050.0;;;9.4;82.3
54314;BME280;50746;52.490;13.320;2023-04-26T10:14:55;101050.0;;;9.5;77.2
54314;BME280;50746;52.490;13.320;2023-04-26T10:15:55;101050.0;;;9.3;77.8
54314;BME280;50746;52.490;13.320;2023-04-26T10:16:55;101040.0;;;9.4;79.7
54314;BME280;50746;52.490;13.320;2023-04-26T10:17:54;101050.0;;;9.6;81.9
54314;BME280;50746;52.490;13.320;2023-04-26T10:18:55;101050.0;;;9.4;79.7
54314;BME280;50746;52.490;13.320;2023-04-26T10:19:56;101050.0;;;9.1;80.9
54314;BME280;50746;52.490;13.320;2023-04-26T10:20:58;101050.0;;;9.2;80.1
54314;BME280;50746;52.490;13.320;2023-04-26T10:22:56;101050.0;;;9.0;78.8
54314;BME280;50746;52.490;13.320;2023-04-26T10:25:54;101050.0;;;9.1;80.1
54314;BME280;50746;52.490;13.320;2023-04-26T10:28:55;101060.0;;;9.0;79.7